sensor_id;sensor_type;location;lat;lon;timestamp;P1;durP1;ratioP1;P2;durP2;ratioP2
71176;SDS011;58877;51.992;4.504;2022-12-29T00:00:30;1.79;;;1.79;;
71176;SDS011;58877;51.992;4.504;2022-12-29T00:02:55;1.88;;;1.88;;
71176;SDS011;58877;51.992;4.504;2022-12-29T00:05:21;1.56;;;1.56;;
71176;SDS011;58877;51.992;4.504;2022-12-29T00:07:46;1.39;;;1.39;;
71176;SDS011;58877;51.992;4.504;2022-12-29T00:10:12;1.45;;;1.45;;
71176;SDS011;58877;51.992;4.504;2022-12-29T00:12:38;1.64;;;1.64;;
71176;SDS011;58877;51.992;4.504;2022-12-29T00:15:22;1.39;;;1.39;;
71176;SDS011;58877;51.992;4.504;2022-12-29T00:18:02;1.59;;;1.59;;
71176;SDS011;58877;51.992;4.504;2022-12-29T00:20:28;1.49;;;1.49;;
71176;SDS011;58877;51.992;4.504;2022-12-29T00:23:13;1.42;;;1.42;;
71176;SDS011;58877;51.992;4.504;2022-12-29T00:25:57;1.53;;;1.53;;
71176;SDS011;58877;51.992;4.504;2022-12-29T00:28:41;1.49;;;1.49;;
71176;SDS011;58877;51.992;4.504;2022-12-29T00:31:25;1.70;;;1.70;;
71176;SDS011;58877;51.992;4.504;2022-12-29T00:34:10;1.48;;;1.48;;
71176;SDS011;58877;51.992;4.504;2022-12-29T00:36:54;1.26;;;1.26;;
71176;SDS011;58877;51.992;4.504;2022-12-29T00:39:21;1.05;;;1.05;;
71176;SDS011;58877;51.992;4.504;2022-12-29T00:42:07;1.19;;;1.19;;
71176;SDS011;58877;51.992;4.504;2022-12-29T00:44:55;1.35;;;1.35;;
71176;SDS011;58877;51.992;4.504;2022-12-29T00:47:21;1.21;;;1.20;;
71176;SDS011;58877;51.992;4.504;2022-12-29T00:49:47;1.26;;;1.26;;
71176;SDS011;58877;51.992;4.504;2022-12-29T00:52:13;1.10;;;1.10;;
71176;SDS011;58877;51.992;4.504;2022-12-29T00:54:39;1.37;;;1.36;;
71176;SDS011;58877;51.992;4.504;2022-12-29T00:57:09;1.23;;;1.21;;
71176;SDS011;58877;51.992;4.504;2022-12-29T00:59:35;1.34;;;1.32;;
71176;SDS011;58877;51.992;4.504;2022-12-29T01:02:02;1.21;;;1.20;;
71176;SDS011;58877;51.992;4.504;2022-12-29T01:04:28;1.28;;;1.27;;
71176;SDS011;58877;51.992;4.504;2022-12-29T01:06:54;0.97;;;0.96;;
71176;SDS011;58877;51.992;4.504;2022-12-29T01:09:20;1.28;;;1.27;;
71176;SDS011;58877;51.992;4.504;2022-12-29T01:12:05;1.26;;;1.24;;
71176;SDS011;58877;51.992;4.504;2022-12-29T01:14:32;1.34;;;1.31;;
71176;SDS011;58877;51.992;4.504;2022-12-29T01:16:58;1.33;;;1.30;;
71176;SDS011;58877;51.992;4.504;2022-12-29T01:19:24;1.35;;;1.31;;
71176;SDS011;58877;51.992;4.504;2022-12-29T01:21:50;1.54;;;1.51;;
71176;SDS011;58877;51.992;4.504;2022-12-29T01:24:17;1.49;;;1.47;;
71176;SDS011;58877;51.992;4.504;2022-12-29T01:26:44;1.63;;;1.61;;
71176;SDS011;58877;51.992;4.504;2022-12-29T01:29:11;1.64;;;1.61;;
71176;SDS011;58877;51.992;4.504;2022-12-29T01:31:37;1.63;;;1.61;;
71176;SDS011;58877;51.992;4.504;2022-12-29T01:34:06;1.58;;;1.56;;
71176;SDS011;58877;51.992;4.504;2022-12-29T01:36:32;1.74;;;1.73;;
71176;SDS011;58877;51.992;4.504;2022-12-29T01:38:58;1.31;;;1.31;;
71176;SDS011;58877;51.992;4.504;2022-12-29T01:41:24;1.64;;;1.63;;
71176;SDS011;58877;51.992;4.504;2022-12-29T01:43:51;1.35;;;1.35;;
71176;SDS011;58877;51.992;4.504;2022-12-29T01:46:25;1.20;;;1.20;;
71176;SDS011;58877;51.992;4.504;2022-12-29T01:51:35;1.26;;;1.26;;
71176;SDS011;58877;51.992;4.504;2022-12-29T01:54:13;1.10;;;1.10;;
71176;SDS011;58877;51.992;4.504;2022-12-29T01:56:55;1.25;;;1.22;;
71176;SDS011;58877;51.992;4.504;2022-12-29T01:59:28;1.23;;;1.17;;
71176;SDS011;58877;51.992;4.504;2022-12-29T02:01:59;1.00;;;0.94;;
71176;SDS011;58877;51.992;4.504;2022-12-29T02:04:26;1.23;;;1.13;;
71176;SDS011;58877;51.992;4.504;2022-12-29T02:06:57;1.34;;;1.17;;
71176;SDS011;58877;51.992;4.504;2022-12-29T02:09:28;1.82;;;1.52;;
71176;SDS011;58877;51.992;4.504;2022-12-29T02:11:54;1.73;;;1.40;;
71176;SDS011;58877;51.992;4.504;2022-12-29T02:14:23;1.94;;;1.52;;
71176;SDS011;58877;51.992;4.504;2022-12-29T02:16:56;2.05;;;1.54;;
71176;SDS011;58877;51.992;4.504;2022-12-29T02:19:44;1.93;;;1.41;;
71176;SDS011;58877;51.992;4.504;2022-12-29T02:27:54;2.10;;;1.45;;
71176;SDS011;58877;51.992;4.504;2022-12-29T02:36:25;2.28;;;1.57;;
71176;SDS011;58877;51.992;4.504;2022-12-29T02:50:33;4.45;;;2.86;;
71176;SDS011;58877;51.992;4.504;2022-12-29T02:53:07;3.76;;;2.37;;
71176;SDS011;58877;51.992;4.504;2022-12-29T02:55:38;3.97;;;2.46;;
71176;SDS011;58877;51.992;4.504;2022-12-29T02:58:13;4.74;;;2.90;;
71176;SDS011;58877;51.992;4.504;2022-12-29T03:01:09;4.37;;;2.67;;
71176;SDS011;58877;51.992;4.504;2022-12-29T03:11:42;5.33;;;3.10;;
71176;SDS011;58877;51.992;4.504;2022-12-29T03:20:34;4.05;;;2.42;;
71176;SDS011;58877;51.992;4.504;2022-12-29T03:23:09;4.68;;;2.80;;
71176;SDS011;58877;51.992;4.504;2022-12-29T03:25:39;4.94;;;2.97;;
71176;SDS011;58877;51.992;4.504;2022-12-29T03:28:14;4.20;;;2.57;;
71176;SDS011;58877;51.992;4.504;2022-12-29T03:30:46;3.67;;;2.25;;
71176;SDS011;58877;51.992;4.504;2022-12-29T03:33:13;3.72;;;2.32;;
71176;SDS011;58877;51.992;4.504;2022-12-29T03:35:45;4.10;;;2.56;;
71176;SDS011;58877;51.992;4.504;2022-12-29T03:40:52;3.45;;;2.18;;
71176;SDS011;58877;51.992;4.504;2022-12-29T03:43:23;3.00;;;1.90;;
71176;SDS011;58877;51.992;4.504;2022-12-29T03:45:51;4.02;;;2.54;;
71176;SDS011;58877;51.992;4.504;2022-12-29T03:48:16;3.82;;;2.40;;
71176;SDS011;58877;51.992;4.504;2022-12-29T03:50:42;3.40;;;2.11;;
71176;SDS011;58877;51.992;4.504;2022-12-29T03:53:08;3.36;;;2.08;;
71176;SDS011;58877;51.992;4.504;2022-12-29T03:55:33;2.81;;;1.75;;
71176;SDS011;58877;51.992;4.504;2022-12-29T03:57:59;3.54;;;2.22;;
71176;SDS011;58877;51.992;4.504;2022-12-29T04:00:25;4.63;;;2.90;;
71176;SDS011;58877;51.992;4.504;2022-12-29T04:02:50;4.90;;;3.04;;
71176;SDS011;58877;51.992;4.504;2022-12-29T04:05:16;4.03;;;2.51;;
71176;SDS011;58877;51.992;4.504;2022-12-29T04:07:42;3.90;;;2.39;;
71176;SDS011;58877;51.992;4.504;2022-12-29T04:10:08;4.42;;;2.67;;
71176;SDS011;58877;51.992;4.504;2022-12-29T04:12:34;5.24;;;3.15;;
71176;SDS011;58877;51.992;4.504;2022-12-29T04:14:59;6.31;;;3.72;;
71176;SDS011;58877;51.992;4.504;2022-12-29T04:17:25;5.88;;;3.42;;
71176;SDS011;58877;51.992;4.504;2022-12-29T04:19:50;5.36;;;3.11;;
71176;SDS011;58877;51.992;4.504;2022-12-29T04:22:16;7.30;;;4.21;;
71176;SDS011;58877;51.992;4.504;2022-12-29T04:24:41;6.91;;;4.00;;
71176;SDS011;58877;51.992;4.504;2022-12-29T04:27:07;7.02;;;4.07;;
71176;SDS011;58877;51.992;4.504;2022-12-29T04:29:33;5.36;;;3.13;;
71176;SDS011;58877;51.992;4.504;2022-12-29T04:31:58;5.70;;;3.34;;
71176;SDS011;58877;51.992;4.504;2022-12-29T04:34:24;5.11;;;3.00;;
71176;SDS011;58877;51.992;4.504;2022-12-29T04:36:50;4.38;;;2.57;;
71176;SDS011;58877;51.992;4.504;2022-12-29T04:39:15;5.47;;;3.20;;
71176;SDS011;58877;51.992;4.504;2022-12-29T04:41:41;4.91;;;2.86;;
71176;SDS011;58877;51.992;4.504;2022-12-29T04:44:07;5.33;;;3.11;;
71176;SDS011;58877;51.992;4.504;2022-12-29T04:46:32;5.93;;;3.46;;
71176;SDS011;58877;51.992;4.504;2022-12-29T04:48:58;5.97;;;3.47;;
71176;SDS011;58877;51.992;4.504;2022-12-29T04:51:25;6.40;;;3.73;;
71176;SDS011;58877;51.992;4.504;2022-12-29T04:53:51;5.47;;;3.22;;
71176;SDS011;58877;51.992;4.504;2022-12-29T04:56:17;5.97;;;3.58;;
71176;SDS011;58877;51.992;4.504;2022-12-29T04:58:42;5.91;;;3.57;;
71176;SDS011;58877;51.992;4.504;2022-12-29T05:01:08;5.83;;;3.46;;
71176;SDS011;58877;51.992;4.504;2022-12-29T05:03:33;5.39;;;3.19;;
71176;SDS011;58877;51.992;4.504;2022-12-29T05:05:59;6.29;;;3.79;;
71176;SDS011;58877;51.992;4.504;2022-12-29T05:08:25;8.27;;;4.83;;
71176;SDS011;58877;51.992;4.504;2022-12-29T05:10:51;7.97;;;4.62;;
71176;SDS011;58877;51.992;4.504;2022-12-29T05:13:17;7.49;;;4.32;;
71176;SDS011;58877;51.992;4.504;2022-12-29T05:15:50;6.62;;;3.83;;
71176;SDS011;58877;51.992;4.504;2022-12-29T05:18:17;6.85;;;3.98;;
71176;SDS011;58877;51.992;4.504;2022-12-29T05:20:43;7.30;;;4.27;;
71176;SDS011;58877;51.992;4.504;2022-12-29T05:23:10;7.30;;;4.27;;
71176;SDS011;58877;51.992;4.504;2022-12-29T05:25:35;8.27;;;4.78;;
71176;SDS011;58877;51.992;4.504;2022-12-29T05:28:01;8.81;;;5.13;;
71176;SDS011;58877;51.992;4.504;2022-12-29T05:30:26;7.57;;;4.47;;
71176;SDS011;58877;51.992;4.504;2022-12-29T05:32:52;8.46;;;5.04;;
71176;SDS011;58877;51.992;4.504;2022-12-29T05:35:17;7.26;;;4.36;;
71176;SDS011;58877;51.992;4.504;2022-12-29T05:37:43;6.93;;;4.17;;
71176;SDS011;58877;51.992;4.504;2022-12-29T05:40:09;7.03;;;4.21;;
71176;SDS011;58877;51.992;4.504;2022-12-29T05:42:36;7.87;;;4.63;;
71176;SDS011;58877;51.992;4.504;2022-12-29T05:45:02;8.63;;;4.99;;
71176;SDS011;58877;51.992;4.504;2022-12-29T05:47:28;9.91;;;5.73;;
71176;SDS011;58877;51.992;4.504;2022-12-29T05:49:53;8.42;;;4.87;;
71176;SDS011;58877;51.992;4.504;2022-12-29T05:52:19;7.80;;;4.54;;
71176;SDS011;58877;51.992;4.504;2022-12-29T05:54:45;9.14;;;5.29;;
71176;SDS011;58877;51.992;4.504;2022-12-29T05:57:10;9.44;;;5.49;;
71176;SDS011;58877;51.992;4.504;2022-12-29T05:59:36;8.59;;;4.93;;
71176;SDS011;58877;51.992;4.504;2022-12-29T06:02:01;8.48;;;4.89;;
71176;SDS011;58877;51.992;4.504;2022-12-29T06:04:27;8.13;;;4.77;;
71176;SDS011;58877;51.992;4.504;2022-12-29T06:06:53;8.95;;;5.21;;
71176;SDS011;58877;51.992;4.504;2022-12-29T06:09:18;8.96;;;5.23;;
71176;SDS011;58877;51.992;4.504;2022-12-29T06:11:44;7.58;;;4.44;;
71176;SDS011;58877;51.992;4.504;2022-12-29T06:14:10;8.32;;;4.84;;
71176;SDS011;58877;51.992;4.504;2022-12-29T06:16:35;7.61;;;4.43;;
71176;SDS011;58877;51.992;4.504;2022-12-29T06:19:01;7.69;;;4.46;;
71176;SDS011;58877;51.992;4.504;2022-12-29T06:21:27;7.42;;;4.32;;
71176;SDS011;58877;51.992;4.504;2022-12-29T06:23:53;7.75;;;4.51;;
71176;SDS011;58877;51.992;4.504;2022-12-29T06:26:18;8.27;;;4.80;;
71176;SDS011;58877;51.992;4.504;2022-12-29T06:28:44;7.77;;;4.53;;
71176;SDS011;58877;51.992;4.504;2022-12-29T06:31:10;8.48;;;4.93;;
71176;SDS011;58877;51.992;4.504;2022-12-29T06:33:36;8.62;;;5.07;;
71176;SDS011;58877;51.992;4.504;2022-12-29T06:36:02;9.97;;;5.93;;
71176;SDS011;58877;51.992;4.504;2022-12-29T06:38:28;11.99;;;6.94;;
71176;SDS011;58877;51.992;4.504;2022-12-29T06:40:54;10.28;;;5.85;;
71176;SDS011;58877;51.992;4.504;2022-12-29T06:43:19;10.09;;;5.67;;
71176;SDS011;58877;51.992;4.504;2022-12-29T06:45:45;11.81;;;6.65;;
71176;SDS011;58877;51.992;4.504;2022-12-29T06:48:11;9.33;;;5.30;;
71176;SDS011;58877;51.992;4.504;2022-12-29T06:50:36;9.01;;;5.11;;
71176;SDS011;58877;51.992;4.504;2022-12-29T06:53:02;8.22;;;4.63;;
71176;SDS011;58877;51.992;4.504;2022-12-29T06:55:28;8.18;;;4.64;;
71176;SDS011;58877;51.992;4.504;2022-12-29T06:57:55;6.60;;;3.76;;
71176;SDS011;58877;51.992;4.504;2022-12-29T07:00:21;7.42;;;4.24;;
71176;SDS011;58877;51.992;4.504;2022-12-29T07:02:47;6.34;;;3.65;;
71176;SDS011;58877;51.992;4.504;2022-12-29T07:05:13;6.64;;;3.86;;
71176;SDS011;58877;51.992;4.504;2022-12-29T07:07:39;6.92;;;4.03;;
71176;SDS011;58877;51.992;4.504;2022-12-29T07:10:04;6.42;;;3.72;;
71176;SDS011;58877;51.992;4.504;2022-12-29T07:12:30;7.06;;;4.08;;
71176;SDS011;58877;51.992;4.504;2022-12-29T07:14:56;6.57;;;3.77;;
71176;SDS011;58877;51.992;4.504;2022-12-29T07:17:22;7.08;;;4.09;;
71176;SDS011;58877;51.992;4.504;2022-12-29T07:19:47;6.44;;;3.80;;
71176;SDS011;58877;51.992;4.504;2022-12-29T07:22:13;5.72;;;3.40;;
71176;SDS011;58877;51.992;4.504;2022-12-29T07:24:38;6.36;;;3.76;;
71176;SDS011;58877;51.992;4.504;2022-12-29T07:27:04;7.64;;;4.55;;
71176;SDS011;58877;51.992;4.504;2022-12-29T07:29:30;7.12;;;4.23;;
71176;SDS011;58877;51.992;4.504;2022-12-29T07:31:55;7.51;;;4.45;;
71176;SDS011;58877;51.992;4.504;2022-12-29T07:34:21;8.24;;;4.83;;
71176;SDS011;58877;51.992;4.504;2022-12-29T07:36:47;6.85;;;4.00;;
71176;SDS011;58877;51.992;4.504;2022-12-29T07:39:12;8.81;;;5.13;;
71176;SDS011;58877;51.992;4.504;2022-12-29T07:41:38;8.23;;;4.76;;
71176;SDS011;58877;51.992;4.504;2022-12-29T07:44:04;8.46;;;4.90;;
71176;SDS011;58877;51.992;4.504;2022-12-29T07:46:31;9.38;;;5.38;;
71176;SDS011;58877;51.992;4.504;2022-12-29T07:48:56;9.50;;;5.37;;
71176;SDS011;58877;51.992;4.504;2022-12-29T07:51:23;9.70;;;5.46;;
71176;SDS011;58877;51.992;4.504;2022-12-29T07:53:48;9.68;;;5.44;;
71176;SDS011;58877;51.992;4.504;2022-12-29T07:56:14;9.75;;;5.51;;
71176;SDS011;58877;51.992;4.504;2022-12-29T07:58:45;9.04;;;5.18;;
71176;SDS011;58877;51.992;4.504;2022-12-29T08:01:11;10.03;;;5.66;;
71176;SDS011;58877;51.992;4.504;2022-12-29T08:03:36;8.53;;;4.81;;
71176;SDS011;58877;51.992;4.504;2022-12-29T08:06:03;10.08;;;5.68;;
71176;SDS011;58877;51.992;4.504;2022-12-29T08:08:28;9.49;;;5.34;;
71176;SDS011;58877;51.992;4.504;2022-12-29T08:10:54;10.52;;;5.94;;
71176;SDS011;58877;51.992;4.504;2022-12-29T08:13:20;8.78;;;5.06;;
71176;SDS011;58877;51.992;4.504;2022-12-29T08:15:45;9.54;;;5.52;;
71176;SDS011;58877;51.992;4.504;2022-12-29T08:18:11;9.03;;;5.20;;
71176;SDS011;58877;51.992;4.504;2022-12-29T08:20:39;10.16;;;5.80;;
71176;SDS011;58877;51.992;4.504;2022-12-29T08:23:05;10.10;;;5.77;;
71176;SDS011;58877;51.992;4.504;2022-12-29T08:25:31;10.33;;;5.94;;
71176;SDS011;58877;51.992;4.504;2022-12-29T08:27:57;9.34;;;5.35;;
71176;SDS011;58877;51.992;4.504;2022-12-29T08:30:22;9.31;;;5.28;;
71176;SDS011;58877;51.992;4.504;2022-12-29T08:32:48;10.31;;;5.81;;
71176;SDS011;58877;51.992;4.504;2022-12-29T08:35:14;11.18;;;6.30;;
71176;SDS011;58877;51.992;4.504;2022-12-29T08:37:40;10.51;;;5.87;;
71176;SDS011;58877;51.992;4.504;2022-12-29T08:40:06;12.12;;;6.79;;
71176;SDS011;58877;51.992;4.504;2022-12-29T08:42:32;10.02;;;5.57;;
71176;SDS011;58877;51.992;4.504;2022-12-29T08:44:58;10.25;;;5.73;;
71176;SDS011;58877;51.992;4.504;2022-12-29T08:47:25;10.98;;;6.20;;
71176;SDS011;58877;51.992;4.504;2022-12-29T08:49:52;9.60;;;5.49;;
71176;SDS011;58877;51.992;4.504;2022-12-29T08:52:18;8.60;;;4.88;;
71176;SDS011;58877;51.992;4.504;2022-12-29T08:54:44;8.83;;;5.02;;
71176;SDS011;58877;51.992;4.504;2022-12-29T08:57:11;10.09;;;5.69;;
71176;SDS011;58877;51.992;4.504;2022-12-29T08:59:37;10.16;;;5.74;;
71176;SDS011;58877;51.992;4.504;2022-12-29T09:02:04;10.31;;;5.92;;
71176;SDS011;58877;51.992;4.504;2022-12-29T09:04:30;10.00;;;5.85;;
71176;SDS011;58877;51.992;4.504;2022-12-29T09:06:56;9.72;;;5.75;;
71176;SDS011;58877;51.992;4.504;2022-12-29T09:09:26;8.81;;;5.18;;
71176;SDS011;58877;51.992;4.504;2022-12-29T09:11:52;7.00;;;4.22;;
71176;SDS011;58877;51.992;4.504;2022-12-29T09:14:17;8.41;;;5.07;;
71176;SDS011;58877;51.992;4.504;2022-12-29T09:16:44;8.18;;;4.98;;
71176;SDS011;58877;51.992;4.504;2022-12-29T09:19:34;6.91;;;4.27;;
71176;SDS011;58877;51.992;4.504;2022-12-29T09:22:03;8.83;;;5.38;;
71176;SDS011;58877;51.992;4.504;2022-12-29T09:24:33;8.36;;;5.04;;
71176;SDS011;58877;51.992;4.504;2022-12-29T09:27:21;8.03;;;4.91;;
71176;SDS011;58877;51.992;4.504;2022-12-29T09:29:51;7.73;;;4.69;;
71176;SDS011;58877;51.992;4.504;2022-12-29T09:32:25;9.30;;;5.57;;
71176;SDS011;58877;51.992;4.504;2022-12-29T09:34:53;8.40;;;4.99;;
71176;SDS011;58877;51.992;4.504;2022-12-29T09:37:21;7.89;;;4.76;;
71176;SDS011;58877;51.992;4.504;2022-12-29T09:39:51;9.29;;;5.62;;
71176;SDS011;58877;51.992;4.504;2022-12-29T09:48:13;8.08;;;4.89;;
71176;SDS011;58877;51.992;4.504;2022-12-29T09:50:52;8.27;;;5.06;;
71176;SDS011;58877;51.992;4.504;2022-12-29T09:53:36;9.04;;;5.54;;
71176;SDS011;58877;51.992;4.504;2022-12-29T09:56:13;9.84;;;5.84;;
71176;SDS011;58877;51.992;4.504;2022-12-29T09:58:57;9.45;;;5.65;;
71176;SDS011;58877;51.992;4.504;2022-12-29T10:06:10;11.97;;;6.96;;
71176;SDS011;58877;51.992;4.504;2022-12-29T10:11:21;14.69;;;8.51;;
71176;SDS011;58877;51.992;4.504;2022-12-29T10:24:52;12.21;;;7.20;;
71176;SDS011;58877;51.992;4.504;2022-12-29T10:27:30;12.59;;;7.41;;
71176;SDS011;58877;51.992;4.504;2022-12-29T10:29:58;14.22;;;8.51;;
71176;SDS011;58877;51.992;4.504;2022-12-29T10:35:24;11.17;;;6.66;;
71176;SDS011;58877;51.992;4.504;2022-12-29T10:38:04;12.75;;;7.60;;
71176;SDS011;58877;51.992;4.504;2022-12-29T10:43:33;12.99;;;7.60;;
71176;SDS011;58877;51.992;4.504;2022-12-29T10:46:12;15.23;;;8.78;;
71176;SDS011;58877;51.992;4.504;2022-12-29T10:48:45;15.92;;;9.18;;
71176;SDS011;58877;51.992;4.504;2022-12-29T10:51:15;13.52;;;7.82;;
71176;SDS011;58877;51.992;4.504;2022-12-29T10:54:13;15.04;;;8.71;;
71176;SDS011;58877;51.992;4.504;2022-12-29T10:56:57;14.78;;;8.46;;
71176;SDS011;58877;51.992;4.504;2022-12-29T10:59:29;15.39;;;8.91;;
71176;SDS011;58877;51.992;4.504;2022-12-29T11:07:29;15.17;;;8.84;;
71176;SDS011;58877;51.992;4.504;2022-12-29T11:10:15;13.99;;;8.10;;
71176;SDS011;58877;51.992;4.504;2022-12-29T11:12:41;14.86;;;8.53;;
71176;SDS011;58877;51.992;4.504;2022-12-29T11:15:21;14.09;;;8.14;;
71176;SDS011;58877;51.992;4.504;2022-12-29T11:17:47;12.06;;;6.94;;
71176;SDS011;58877;51.992;4.504;2022-12-29T11:20:28;13.92;;;8.07;;
71176;SDS011;58877;51.992;4.504;2022-12-29T11:23:03;15.20;;;8.75;;
71176;SDS011;58877;51.992;4.504;2022-12-29T11:26:22;16.67;;;9.47;;
71176;SDS011;58877;51.992;4.504;2022-12-29T11:28:43;16.61;;;9.47;;
71176;SDS011;58877;51.992;4.504;2022-12-29T11:31:13;17.47;;;9.83;;
71176;SDS011;58877;51.992;4.504;2022-12-29T11:33:41;18.00;;;10.19;;
71176;SDS011;58877;51.992;4.504;2022-12-29T11:38:49;13.78;;;7.94;;
71176;SDS011;58877;51.992;4.504;2022-12-29T11:41:22;13.64;;;7.79;;
71176;SDS011;58877;51.992;4.504;2022-12-29T11:43:54;9.50;;;5.53;;
71176;SDS011;58877;51.992;4.504;2022-12-29T11:46:25;10.51;;;6.11;;
71176;SDS011;58877;51.992;4.504;2022-12-29T11:48:55;12.07;;;6.91;;
71176;SDS011;58877;51.992;4.504;2022-12-29T11:51:48;11.83;;;6.75;;
71176;SDS011;58877;51.992;4.504;2022-12-29T11:54:24;13.86;;;8.14;;
71176;SDS011;58877;51.992;4.504;2022-12-29T11:57:13;12.43;;;7.29;;
71176;SDS011;58877;51.992;4.504;2022-12-29T11:59:56;14.09;;;7.96;;
71176;SDS011;58877;51.992;4.504;2022-12-29T12:08:14;12.19;;;7.08;;
71176;SDS011;58877;51.992;4.504;2022-12-29T12:10:45;11.24;;;6.50;;
71176;SDS011;58877;51.992;4.504;2022-12-29T12:13:33;11.97;;;6.95;;
71176;SDS011;58877;51.992;4.504;2022-12-29T12:16:09;11.11;;;6.47;;
71176;SDS011;58877;51.992;4.504;2022-12-29T12:22:08;9.68;;;5.66;;
71176;SDS011;58877;51.992;4.504;2022-12-29T12:24:47;9.22;;;5.39;;
71176;SDS011;58877;51.992;4.504;2022-12-29T12:27:33;10.44;;;6.02;;
71176;SDS011;58877;51.992;4.504;2022-12-29T12:30:17;8.46;;;4.97;;
71176;SDS011;58877;51.992;4.504;2022-12-29T12:33:02;7.88;;;4.57;;
71176;SDS011;58877;51.992;4.504;2022-12-29T12:47:13;10.22;;;5.91;;
71176;SDS011;58877;51.992;4.504;2022-12-29T12:55:33;13.21;;;7.53;;
71176;SDS011;58877;51.992;4.504;2022-12-29T12:58:31;11.47;;;6.64;;
71176;SDS011;58877;51.992;4.504;2022-12-29T13:09:17;11.16;;;6.48;;
71176;SDS011;58877;51.992;4.504;2022-12-29T13:12:03;11.70;;;6.75;;
71176;SDS011;58877;51.992;4.504;2022-12-29T13:36:19;9.50;;;5.71;;
71176;SDS011;58877;51.992;4.504;2022-12-29T13:39:05;8.19;;;5.16;;
71176;SDS011;58877;51.992;4.504;2022-12-29T13:41:51;7.19;;;4.86;;
71176;SDS011;58877;51.992;4.504;2022-12-29T13:44:35;5.84;;;4.00;;
71176;SDS011;58877;51.992;4.504;2022-12-29T13:50:16;4.71;;;3.15;;
71176;SDS011;58877;51.992;4.504;2022-12-29T13:52:49;4.94;;;3.33;;
71176;SDS011;58877;51.992;4.504;2022-12-29T13:55:46;4.10;;;2.80;;
71176;SDS011;58877;51.992;4.504;2022-12-29T14:01:28;5.54;;;3.75;;
71176;SDS011;58877;51.992;4.504;2022-12-29T14:03:57;4.24;;;2.81;;
71176;SDS011;58877;51.992;4.504;2022-12-29T14:06:28;4.82;;;3.17;;
71176;SDS011;58877;51.992;4.504;2022-12-29T14:09:05;5.55;;;3.56;;
71176;SDS011;58877;51.992;4.504;2022-12-29T14:11:52;5.53;;;3.51;;
71176;SDS011;58877;51.992;4.504;2022-12-29T14:16:46;5.19;;;3.29;;
71176;SDS011;58877;51.992;4.504;2022-12-29T14:19:15;4.79;;;3.09;;
71176;SDS011;58877;51.992;4.504;2022-12-29T14:22:06;4.46;;;2.89;;
71176;SDS011;58877;51.992;4.504;2022-12-29T14:34:47;4.88;;;3.17;;
71176;SDS011;58877;51.992;4.504;2022-12-29T14:37:46;5.49;;;3.56;;
71176;SDS011;58877;51.992;4.504;2022-12-29T14:40:24;6.29;;;3.99;;
71176;SDS011;58877;51.992;4.504;2022-12-29T14:43:01;7.19;;;4.39;;
71176;SDS011;58877;51.992;4.504;2022-12-29T14:45:31;6.02;;;3.68;;
71176;SDS011;58877;51.992;4.504;2022-12-29T14:48:02;5.85;;;3.60;;
71176;SDS011;58877;51.992;4.504;2022-12-29T14:50:54;6.16;;;3.84;;
71176;SDS011;58877;51.992;4.504;2022-12-29T14:56:14;5.64;;;3.51;;
71176;SDS011;58877;51.992;4.504;2022-12-29T14:58:50;5.24;;;3.27;;
71176;SDS011;58877;51.992;4.504;2022-12-29T15:03:59;5.29;;;3.38;;
71176;SDS011;58877;51.992;4.504;2022-12-29T15:06:31;5.19;;;3.37;;
71176;SDS011;58877;51.992;4.504;2022-12-29T15:09:27;5.00;;;3.24;;
71176;SDS011;58877;51.992;4.504;2022-12-29T15:12:29;5.38;;;3.44;;
71176;SDS011;58877;51.992;4.504;2022-12-29T15:14:49;6.29;;;3.99;;
71176;SDS011;58877;51.992;4.504;2022-12-29T15:17:28;6.08;;;3.80;;
71176;SDS011;58877;51.992;4.504;2022-12-29T15:19:57;6.05;;;3.74;;
71176;SDS011;58877;51.992;4.504;2022-12-29T15:22:41;6.95;;;4.22;;
71176;SDS011;58877;51.992;4.504;2022-12-29T15:25:14;7.18;;;4.31;;
71176;SDS011;58877;51.992;4.504;2022-12-29T15:27:42;7.23;;;4.36;;
71176;SDS011;58877;51.992;4.504;2022-12-29T15:30:15;7.10;;;4.26;;
71176;SDS011;58877;51.992;4.504;2022-12-29T15:32:45;9.57;;;5.62;;
71176;SDS011;58877;51.992;4.504;2022-12-29T15:35:24;8.39;;;4.89;;
71176;SDS011;58877;51.992;4.504;2022-12-29T15:38:11;7.91;;;4.65;;
71176;SDS011;58877;51.992;4.504;2022-12-29T15:40:45;8.36;;;4.89;;
71176;SDS011;58877;51.992;4.504;2022-12-29T15:46:01;7.08;;;4.13;;
71176;SDS011;58877;51.992;4.504;2022-12-29T15:48:27;6.58;;;3.89;;
71176;SDS011;58877;51.992;4.504;2022-12-29T15:50:55;7.99;;;4.74;;
71176;SDS011;58877;51.992;4.504;2022-12-29T15:53:26;7.95;;;4.69;;
71176;SDS011;58877;51.992;4.504;2022-12-29T15:56:05;6.75;;;3.94;;
71176;SDS011;58877;51.992;4.504;2022-12-29T15:58:45;6.31;;;3.74;;
71176;SDS011;58877;51.992;4.504;2022-12-29T16:01:23;5.55;;;3.29;;
71176;SDS011;58877;51.992;4.504;2022-12-29T16:03:55;6.24;;;3.71;;
71176;SDS011;58877;51.992;4.504;2022-12-29T16:06:36;6.77;;;4.08;;
71176;SDS011;58877;51.992;4.504;2022-12-29T16:11:55;5.93;;;3.65;;
71176;SDS011;58877;51.992;4.504;2022-12-29T16:14:44;6.35;;;3.91;;
71176;SDS011;58877;51.992;4.504;2022-12-29T16:17:20;5.33;;;3.24;;
71176;SDS011;58877;51.992;4.504;2022-12-29T16:19:56;7.04;;;4.23;;
71176;SDS011;58877;51.992;4.504;2022-12-29T16:22:30;6.34;;;3.88;;
71176;SDS011;58877;51.992;4.504;2022-12-29T16:27:49;5.83;;;3.67;;
71176;SDS011;58877;51.992;4.504;2022-12-29T16:30:26;5.87;;;3.67;;
71176;SDS011;58877;51.992;4.504;2022-12-29T16:32:54;5.76;;;3.56;;
71176;SDS011;58877;51.992;4.504;2022-12-29T16:35:45;6.44;;;3.95;;
71176;SDS011;58877;51.992;4.504;2022-12-29T16:38:21;6.12;;;3.75;;
71176;SDS011;58877;51.992;4.504;2022-12-29T16:40:55;6.75;;;4.11;;
71176;SDS011;58877;51.992;4.504;2022-12-29T16:43:28;6.06;;;3.70;;
71176;SDS011;58877;51.992;4.504;2022-12-29T16:48:25;7.98;;;4.88;;
71176;SDS011;58877;51.992;4.504;2022-12-29T16:54:02;7.95;;;4.90;;
71176;SDS011;58877;51.992;4.504;2022-12-29T16:56:30;6.58;;;4.11;;
71176;SDS011;58877;51.992;4.504;2022-12-29T16:59:04;6.59;;;4.24;;
71176;SDS011;58877;51.992;4.504;2022-12-29T17:01:41;6.41;;;4.04;;
71176;SDS011;58877;51.992;4.504;2022-12-29T17:04:08;6.85;;;4.20;;
71176;SDS011;58877;51.992;4.504;2022-12-29T17:06:36;6.86;;;4.26;;
71176;SDS011;58877;51.992;4.504;2022-12-29T17:09:02;6.83;;;4.23;;
71176;SDS011;58877;51.992;4.504;2022-12-29T17:11:59;6.18;;;3.82;;
71176;SDS011;58877;51.992;4.504;2022-12-29T17:17:17;6.27;;;3.82;;
71176;SDS011;58877;51.992;4.504;2022-12-29T17:19:45;5.49;;;3.40;;
71176;SDS011;58877;51.992;4.504;2022-12-29T17:22:16;6.72;;;4.10;;
71176;SDS011;58877;51.992;4.504;2022-12-29T17:24:49;6.04;;;3.67;;
71176;SDS011;58877;51.992;4.504;2022-12-29T17:27:19;7.00;;;4.35;;
71176;SDS011;58877;51.992;4.504;2022-12-29T17:29:49;6.56;;;4.13;;
71176;SDS011;58877;51.992;4.504;2022-12-29T17:32:17;5.53;;;3.49;;
71176;SDS011;58877;51.992;4.504;2022-12-29T17:34:43;6.27;;;4.00;;
71176;SDS011;58877;51.992;4.504;2022-12-29T17:37:15;7.06;;;4.43;;
71176;SDS011;58877;51.992;4.504;2022-12-29T17:39:58;7.36;;;4.64;;
71176;SDS011;58877;51.992;4.504;2022-12-29T17:42:24;7.56;;;4.79;;
71176;SDS011;58877;51.992;4.504;2022-12-29T17:44:50;6.12;;;3.92;;
71176;SDS011;58877;51.992;4.504;2022-12-29T17:47:16;7.30;;;4.51;;
71176;SDS011;58877;51.992;4.504;2022-12-29T17:49:42;8.02;;;4.95;;
71176;SDS011;58877;51.992;4.504;2022-12-29T17:52:11;6.49;;;4.05;;
71176;SDS011;58877;51.992;4.504;2022-12-29T17:54:49;6.78;;;4.29;;
71176;SDS011;58877;51.992;4.504;2022-12-29T17:57:17;6.43;;;4.05;;
71176;SDS011;58877;51.992;4.504;2022-12-29T17:59:44;6.01;;;3.81;;
71176;SDS011;58877;51.992;4.504;2022-12-29T18:02:24;6.20;;;3.89;;
71176;SDS011;58877;51.992;4.504;2022-12-29T18:04:50;6.29;;;3.90;;
71176;SDS011;58877;51.992;4.504;2022-12-29T18:07:16;7.27;;;4.45;;